Time;durP1;ratioP1;P1;durP2;ratioP2;P2;SDS_P1;SDS_P2;PMS_P1;PMS_P2;Temp;Humidity;BMP_temperature;BMP_pressure;BME280_temperature;BME280_humidity;BME280_pressure;Samples;Min_cycle;Max_cycle;Signal;HPM_P1;HPM_P2
2023/04/15 00:01:51;;;;;;;;;;;;;;;12.87;44.03;94342.84;4950565;29;19937;-59
2023/04/15 00:04:18;;;;;;;;;;;;;;;12.97;43.50;94340.06;4951816;28;19935;-59
2023/04/15 00:06:54;;;;;;;;;;;;;;;13.01;45.40;94346.34;4951944;29;20541;-59
2023/04/15 00:09:20;;;;;;;;;;;;;;;13.18;44.21;94344.03;4950877;29;20025;-60
2023/04/15 00:11:49;;;;;;;;;;;;;;;13.12;43.18;94363.56;4951335;28;19931;-59
2023/04/15 00:14:16;;;;;;;;;;;;;;;12.34;45.19;94388.66;4951607;28;19931;-59
2023/04/15 00:16:43;;;;;;;;;;;;;;;12.51;45.16;94378.50;4951101;29;19952;-59
2023/04/15 00:19:10;;;;;;;;;;;;;;;12.76;44.15;94372.16;4949321;29;19961;-60
2023/04/15 00:21:36;;;;;;;;;;;;;;;13.04;44.16;94373.97;4949824;29;19934;-60
2023/04/15 00:24:03;;;;;;;;;;;;;;;13.20;43.47;94367.44;4951264;29;19930;-59
2023/04/15 00:26:30;;;;;;;;;;;;;;;13.35;43.44;94366.44;4950741;29;19927;-59
2023/04/15 00:28:57;;;;;;;;;;;;;;;12.56;45.19;94362.66;4936121;29;20436;-59
2023/04/15 00:31:24;;;;;;;;;;;;;;;12.72;45.54;94364.06;4949778;29;20067;-59
2023/04/15 00:33:51;;;;;;;;;;;;;;;13.04;44.94;94358.97;4950624;29;19989;-59
2023/04/15 00:36:18;;;;;;;;;;;;;;;12.81;46.68;94364.22;4949926;28;19999;-58
2023/04/15 00:38:45;;;;;;;;;;;;;;;13.23;46.11;94360.81;4933252;28;20021;-60
2023/04/15 00:41:12;;;;;;;;;;;;;;;13.26;46.61;94365.50;4949902;29;20404;-60
2023/04/15 00:43:38;;;;;;;;;;;;;;;13.43;45.72;94363.16;4933210;29;19986;-60
2023/04/15 00:46:06;;;;;;;;;;;;;;;13.27;44.86;94369.69;4950507;28;20671;-59
2023/04/15 00:48:33;;;;;;;;;;;;;;;13.23;45.57;94374.75;4932344;29;19926;-59
2023/04/15 00:51:00;;;;;;;;;;;;;;;12.82;46.16;94386.81;4950080;28;19933;-59
2023/04/15 00:53:27;;;;;;;;;;;;;;;12.75;46.71;94379.28;4949769;28;19926;-59
2023/04/15 00:55:55;;;;;;;;;;;;;;;12.81;46.80;94378.13;4950317;28;19926;-59
2023/04/15 00:58:22;;;;;;;;;;;;;;;13.02;45.90;94371.63;4950373;28;20377;-59
2023/04/15 01:00:53;;;;;;;;;;;;;;;12.90;45.81;94373.81;4946163;29;19951;-59
2023/04/15 01:03:20;;;;;;;;;;;;;;;12.95;45.40;94375.63;4932200;29;20401;-59
2023/04/15 01:05:47;;;;;;;;;;;;;;;13.23;45.06;94380.78;4948895;29;20627;-59
2023/04/15 01:08:14;;;;;;;;;;;;;;;13.00;45.68;94381.59;4947157;28;19966;-60
2023/04/15 01:10:41;;;;;;;;;;;;;;;13.12;46.10;94382.00;4931501;29;20025;-59
2023/04/15 01:13:08;;;;;;;;;;;;;;;13.19;44.97;94379.78;4951853;28;19962;-60
2023/04/15 01:15:35;;;;;;;;;;;;;;;13.32;45.38;94380.94;4950879;28;19930;-61
2023/04/15 01:18:02;;;;;;;;;;;;;;;13.35;45.34;94366.44;4950847;29;19938;-59
2023/04/15 01:20:28;;;;;;;;;;;;;;;13.42;44.81;94367.66;4950265;29;19933;-59
2023/04/15 01:22:55;;;;;;;;;;;;;;;13.23;45.12;94367.63;4950311;28;20029;-60
2023/04/15 01:25:41;;;;;;;;;;;;;;;13.21;45.47;94369.75;4951410;29;19926;-59
2023/04/15 01:28:08;;;;;;;;;;;;;;;13.08;45.29;94359.19;4948583;28;19981;-59
2023/04/15 01:30:35;;;;;;;;;;;;;;;13.12;46.44;94353.06;4950940;28;20776;-60
2023/04/15 01:33:02;;;;;;;;;;;;;;;12.26;47.65;94360.38;4949661;29;20493;-60
2023/04/15 01:35:29;;;;;;;;;;;;;;;12.36;47.77;94360.25;4950899;29;19985;-60
2023/04/15 01:38:02;;;;;;;;;;;;;;;12.63;47.12;94363.09;4950207;29;19938;-60
2023/04/15 01:40:29;;;;;;;;;;;;;;;12.92;46.34;94363.81;4950782;28;19934;-59
2023/04/15 01:42:57;;;;;;;;;;;;;;;12.95;46.82;94368.53;4949951;28;19986;-59
2023/04/15 01:45:24;;;;;;;;;;;;;;;13.00;45.85;94381.59;4950803;28;19933;-60
2023/04/15 01:47:50;;;;;;;;;;;;;;;13.04;45.95;94379.22;4950756;28;19931;-59
2023/04/15 01:50:17;;;;;;;;;;;;;;;13.12;46.33;94374.09;4932999;29;20350;-59
2023/04/15 01:52:44;;;;;;;;;;;;;;;13.05;46.15;94384.19;4950075;29;20021;-60
2023/04/15 01:55:12;;;;;;;;;;;;;;;13.23;46.35;94375.53;4950981;29;19978;-58
2023/04/15 01:57:39;;;;;;;;;;;;;;;12.92;46.29;94387.47;4932801;28;19930;-59
2023/04/15 02:00:06;;;;;;;;;;;;;;;12.82;44.38;94390.25;4932880;29;20405;-60
2023/04/15 02:02:39;;;;;;;;;;;;;;;12.78;44.44;94399.75;4949900;29;20382;-60
2023/04/15 02:05:06;;;;;;;;;;;;;;;12.88;43.75;94394.34;4932903;29;19982;-60
2023/04/15 02:07:33;;;;;;;;;;;;;;;12.83;43.73;94386.53;4948048;28;19982;-59
2023/04/15 02:10:01;;;;;;;;;;;;;;;12.60;44.60;94382.06;4946584;28;21505;-59
2023/04/15 02:12:28;;;;;;;;;;;;;;;12.86;44.80;94385.19;4948917;28;19990;-60
2023/04/15 02:14:55;;;;;;;;;;;;;;;12.89;44.43;94390.69;4938252;29;19942;-59
2023/04/15 02:17:22;;;;;;;;;;;;;;;12.92;43.66;94379.59;4930370;29;20098;-60
2023/04/15 02:19:49;;;;;;;;;;;;;;;12.79;44.31;94380.25;4950184;28;19933;-59
2023/04/15 02:22:17;;;;;;;;;;;;;;;12.73;44.65;94381.41;4932998;29;19986;-60
2023/04/15 02:24:45;;;;;;;;;;;;;;;12.67;45.56;94377.25;4950326;28;19991;-60
2023/04/15 02:27:16;;;;;;;;;;;;;;;12.55;45.28;94363.75;4948997;28;19931;-59
2023/04/15 02:29:44;;;;;;;;;;;;;;;12.58;45.35;94376.31;4950433;28;19930;-59
2023/04/15 02:32:14;;;;;;;;;;;;;;;12.09;46.19;94381.00;4936950;29;19976;-59
2023/04/15 02:34:41;;;;;;;;;;;;;;;12.24;45.30;94378.25;4950196;28;20386;-60
2023/04/15 02:37:10;;;;;;;;;;;;;;;12.33;45.71;94366.06;4934877;29;19937;-60
2023/04/15 02:39:38;;;;;;;;;;;;;;;12.40;45.02;94365.72;4950125;28;19930;-59
2023/04/15 02:42:07;;;;;;;;;;;;;;;12.33;44.95;94360.03;4948897;29;19946;-59
2023/04/15 02:44:35;;;;;;;;;;;;;;;12.14;45.63;94378.34;4945861;29;19933;-59
2023/04/15 02:47:05;;;;;;;;;;;;;;;12.08;45.29;94385.47;4933734;28;19961;-59
2023/04/15 02:49:32;;;;;;;;;;;;;;;12.26;45.71;94380.59;4950280;29;19998;-59
2023/04/15 02:51:59;;;;;;;;;;;;;;;12.04;45.71;94381.06;4949498;29;19962;-59
2023/04/15 02:54:29;;;;;;;;;;;;;;;12.02;45.62;94402.31;4950337;29;20322;-60
2023/04/15 02:56:56;;;;;;;;;;;;;;;12.10;45.33;94403.56;4947895;29;20457;-60
2023/04/15 02:59:23;;;;;;;;;;;;;;;12.17;45.10;94404.06;4950088;29;20037;-59
2023/04/15 03:01:50;;;;;;;;;;;;;;;11.82;45.31;94402.53;4947983;28;19931;-58
2023/04/15 03:04:17;;;;;;;;;;;;;;;11.65;44.75;94407.34;4949842;29;19982;-60
2023/04/15 03:06:44;;;;;;;;;;;;;;;11.36;45.41;94410.91;4948616;29;20015;-61
2023/04/15 03:09:11;;;;;;;;;;;;;;;11.60;44.76;94398.72;4934817;28;20028;-59
2023/04/15 03:11:39;;;;;;;;;;;;;;;11.59;44.61;94402.38;4935603;29;19934;-59
2023/04/15 03:14:08;;;;;;;;;;;;;;;11.27;44.47;94407.31;4935855;29;19990;-59
2023/04/15 03:16:38;;;;;;;;;;;;;;;11.46;44.04;94408.25;4935444;29;19926;-59
2023/04/15 03:19:05;;;;;;;;;;;;;;;10.81;44.49;94423.25;4936437;29;19978;-59
2023/04/15 03:21:33;;;;;;;;;;;;;;;11.26;44.59;94429.34;4952922;29;20049;-60
2023/04/15 03:24:00;;;;;;;;;;;;;;;11.23;43.62;94423.59;4953670;29;20293;-60
2023/04/15 03:26:31;;;;;;;;;;;;;;;11.26;43.40;94418.84;4951189;28;20472;-60
2023/04/15 03:29:01;;;;;;;;;;;;;;;11.11;43.68;94423.09;4936202;29;20029;-59
2023/04/15 03:31:28;;;;;;;;;;;;;;;11.09;44.21;94427.84;4935411;29;19930;-59
2023/04/15 03:33:55;;;;;;;;;;;;;;;10.76;44.65;94440.81;4953537;29;19933;-60
2023/04/15 03:36:22;;;;;;;;;;;;;;;10.85;44.19;94429.53;4951083;28;20021;-59
2023/04/15 03:38:49;;;;;;;;;;;;;;;10.96;44.52;94436.31;4950964;28;19957;-59
2023/04/15 03:41:16;;;;;;;;;;;;;;;10.53;45.35;94447.41;4951887;28;20023;-60
2023/04/15 03:43:43;;;;;;;;;;;;;;;10.81;45.36;94432.94;4952954;29;19932;-60
2023/04/15 03:46:09;;;;;;;;;;;;;;;10.90;45.54;94441.81;4952584;29;19937;-60
2023/04/15 03:48:36;;;;;;;;;;;;;;;10.77;45.85;94453.66;4952974;29;20409;-60
2023/04/15 03:51:03;;;;;;;;;;;;;;;10.83;45.79;94455.22;4951897;28;19966;-60
2023/04/15 03:53:30;;;;;;;;;;;;;;;11.01;45.39;94461.69;4952906;29;20407;-59
2023/04/15 03:55:57;;;;;;;;;;;;;;;10.82;45.77;94455.50;4952520;28;20041;-59
2023/04/15 03:58:24;;;;;;;;;;;;;;;10.58;46.18;94465.78;4951002;29;20021;-62
2023/04/15 04:00:51;;;;;;;;;;;;;;;10.88;46.18;94455.19;4950717;29;19990;-59
2023/04/15 04:03:19;;;;;;;;;;;;;;;11.04;45.71;94455.91;4951797;28;20441;-59
2023/04/15 04:05:47;;;;;;;;;;;;;;;10.91;46.25;94465.13;4952114;29;19930;-60
2023/04/15 04:08:15;;;;;;;;;;;;;;;11.12;46.08;94458.78;4951272;29;20005;-59
2023/04/15 04:10:41;;;;;;;;;;;;;;;10.82;46.74;94477.22;4951745;28;19926;-59
2023/04/15 04:13:08;;;;;;;;;;;;;;;10.39;48.01;94466.56;4950973;29;20441;-61
2023/04/15 04:15:35;;;;;;;;;;;;;;;10.64;47.73;94458.66;4950208;28;19961;-59
2023/04/15 04:18:02;;;;;;;;;;;;;;;10.46;48.29;94462.63;4949590;28;20398;-63
2023/04/15 04:20:30;;;;;;;;;;;;;;;10.22;49.34;94472.06;4951060;29;20033;-60
2023/04/15 04:22:58;;;;;;;;;;;;;;;10.22;49.49;94472.06;4949775;28;19930;-60
2023/04/15 04:25:26;;;;;;;;;;;;;;;10.11;50.19;94470.50;4950914;29;19926;-60
2023/04/15 04:27:52;;;;;;;;;;;;;;;10.43;49.85;94467.63;4949909;29;19960;-59
2023/04/15 04:30:19;;;;;;;;;;;;;;;10.60;48.53;94473.34;4950851;29;20437;-61
2023/04/15 04:32:46;;;;;;;;;;;;;;;10.76;48.71;94465.19;4950638;29;19980;-59
2023/04/15 04:35:12;;;;;;;;;;;;;;;11.01;48.58;94469.56;4951454;28;19932;-59
2023/04/15 04:37:39;;;;;;;;;;;;;;;10.92;48.76;94461.47;4951285;28;19930;-60
2023/04/15 04:40:06;;;;;;;;;;;;;;;11.27;47.63;94467.63;4950236;29;21149;-60
2023/04/15 04:42:33;;;;;;;;;;;;;;;11.54;47.29;94478.50;4950998;28;19937;-60
2023/04/15 04:45:02;;;;;;;;;;;;;;;11.61;47.27;94478.97;4951431;28;19926;-60
2023/04/15 04:47:30;;;;;;;;;;;;;;;11.65;46.59;94470.34;4951074;29;20604;-59
2023/04/15 04:49:56;;;;;;;;;;;;;;;11.85;46.51;94485.16;4951702;29;19934;-59
2023/04/15 04:52:23;;;;;;;;;;;;;;;11.90;46.49;94483.28;4950442;29;20398;-59
2023/04/15 04:54:49;;;;;;;;;;;;;;;11.98;46.26;94479.31;4951351;29;19930;-61
2023/04/15 04:57:16;;;;;;;;;;;;;;;12.11;46.26;94481.31;4933520;29;19937;-59
2023/04/15 04:59:43;;;;;;;;;;;;;;;12.23;46.22;94489.63;4950858;28;19961;-58
2023/04/15 05:02:10;;;;;;;;;;;;;;;12.30;45.63;94500.59;4950376;29;19930;-61
2023/04/15 05:04:37;;;;;;;;;;;;;;;12.39;45.77;94501.56;4951200;29;19930;-59
2023/04/15 05:07:03;;;;;;;;;;;;;;;12.43;45.86;94502.59;4950416;29;20406;-60
2023/04/15 05:09:31;;;;;;;;;;;;;;;12.63;45.86;94501.63;4951158;29;21033;-59
2023/04/15 05:11:58;;;;;;;;;;;;;;;12.69;45.75;94506.56;4937427;29;20111;-59
2023/04/15 05:14:25;;;;;;;;;;;;;;;12.97;45.53;94507.63;4951016;28;19930;-59
2023/04/15 05:16:51;;;;;;;;;;;;;;;12.90;44.89;94518.44;4949500;28;20017;-59
2023/04/15 05:19:18;;;;;;;;;;;;;;;13.07;44.68;94518.03;4949513;28;20402;-60
2023/04/15 05:21:45;;;;;;;;;;;;;;;12.19;45.67;94528.78;4948502;28;19989;-59
2023/04/15 05:24:11;;;;;;;;;;;;;;;12.40;45.58;94524.16;4947353;28;19930;-60
2023/04/15 05:26:38;;;;;;;;;;;;;;;12.82;44.17;94521.69;4939470;29;20671;-59
2023/04/15 05:29:05;;;;;;;;;;;;;;;13.12;45.02;94517.97;4946652;29;20714;-60
2023/04/15 05:31:31;;;;;;;;;;;;;;;12.95;45.06;94518.41;4930550;29;19927;-60
2023/04/15 05:33:59;;;;;;;;;;;;;;;12.48;44.89;94525.44;4945949;28;19934;-58
2023/04/15 05:36:26;;;;;;;;;;;;;;;13.04;44.10;94527.28;4949264;28;19973;-60
2023/04/15 05:38:53;;;;;;;;;;;;;;;13.27;44.24;94517.03;4944167;28;20387;-60
2023/04/15 05:41:20;;;;;;;;;;;;;;;13.54;43.64;94514.63;4941024;28;19969;-61
2023/04/15 05:43:47;;;;;;;;;;;;;;;13.58;43.80;94516.41;4948967;28;19934;-60
2023/04/15 05:46:13;;;;;;;;;;;;;;;13.51;43.28;94515.16;4932323;29;19926;-60
2023/04/15 05:48:40;;;;;;;;;;;;;;;13.68;42.59;94516.28;4930679;29;19931;-59
2023/04/15 05:51:07;;;;;;;;;;;;;;;13.86;41.65;94514.72;4942150;29;20037;-60
2023/04/15 05:53:34;;;;;;;;;;;;;;;13.98;42.22;94509.78;4935065;29;20464;-58
2023/04/15 05:56:00;;;;;;;;;;;;;;;14.04;42.16;94513.94;4931581;29;19935;-59
2023/04/15 05:58:31;;;;;;;;;;;;;;;13.96;42.23;94517.19;4948774;28;19931;-61
2023/04/15 06:01:01;;;;;;;;;;;;;;;13.66;40.24;94530.78;4948113;28;19981;-60
2023/04/15 06:03:30;;;;;;;;;;;;;;;14.09;42.51;94534.94;4941825;29;19980;-55
2023/04/15 06:05:57;;;;;;;;;;;;;;;14.10;41.77;94533.88;4947542;29;19930;-58
2023/04/15 06:08:24;;;;;;;;;;;;;;;14.17;43.06;94537.72;4939316;29;19930;-60
2023/04/15 06:10:51;;;;;;;;;;;;;;;14.46;40.07;94537.56;4945100;29;19937;-61
2023/04/15 06:13:18;;;;;;;;;;;;;;;14.79;39.45;94539.13;4934946;28;20319;-63
2023/04/15 06:15:44;;;;;;;;;;;;;;;14.99;40.11;94533.50;4948983;28;19927;-62
2023/04/15 06:18:11;;;;;;;;;;;;;;;14.85;40.00;94543.25;4946907;28;19930;-66
2023/04/15 06:20:38;;;;;;;;;;;;;;;15.09;39.67;94532.56;4937901;29;19989;-63
2023/04/15 06:23:05;;;;;;;;;;;;;;;14.97;39.99;94540.94;4940834;28;19942;-59
2023/04/15 06:25:32;;;;;;;;;;;;;;;14.69;41.86;94549.84;4949839;28;19931;-63
2023/04/15 06:27:59;;;;;;;;;;;;;;;14.93;40.79;94545.22;4945484;28;19934;-61
2023/04/15 06:30:25;;;;;;;;;;;;;;;14.80;40.11;94543.34;4930082;29;19937;-62
2023/04/15 06:32:53;;;;;;;;;;;;;;;14.58;40.48;94559.00;4941542;28;20394;-64
2023/04/15 06:35:21;;;;;;;;;;;;;;;14.55;40.86;94562.22;4929974;29;20029;-64
2023/04/15 06:37:47;;;;;;;;;;;;;;;13.97;40.87;94563.56;4929266;29;20275;-61
2023/04/15 06:40:14;;;;;;;;;;;;;;;13.97;42.94;94568.81;4949203;28;19989;-62
2023/04/15 06:42:41;;;;;;;;;;;;;;;14.22;42.14;94569.25;4933581;28;19937;-61
2023/04/15 06:45:08;;;;;;;;;;;;;;;14.02;42.15;94566.13;4950747;28;20365;-63
2023/04/15 06:47:35;;;;;;;;;;;;;;;14.16;42.09;94566.97;4952373;28;19937;-66
2023/04/15 06:50:02;;;;;;;;;;;;;;;14.72;40.96;94566.97;4940457;29;19931;-70
2023/04/15 06:52:30;;;;;;;;;;;;;;;14.81;40.41;94563.38;4934203;29;19942;-63
2023/04/15 06:54:58;;;;;;;;;;;;;;;14.49;40.57;94575.78;4952066;29;20334;-68
2023/04/15 06:57:25;;;;;;;;;;;;;;;14.80;40.42;94569.72;4941074;28;20033;-66
2023/04/15 06:59:53;;;;;;;;;;;;;;;15.39;40.73;94568.16;4948294;29;20029;-59
2023/04/15 07:02:20;;;;;;;;;;;;;;;15.88;38.45;94570.91;4943420;28;19939;-65
2023/04/15 07:04:47;;;;;;;;;;;;;;;15.65;38.84;94567.41;4948562;29;19930;-65
2023/04/15 07:07:15;;;;;;;;;;;;;;;15.95;38.61;94566.00;4947816;28;20690;-68
2023/04/15 07:09:44;;;;;;;;;;;;;;;15.64;39.04;94570.31;4917691;29;19927;-65
2023/04/15 07:12:11;;;;;;;;;;;;;;;15.84;38.38;94576.00;4948824;29;20381;-66
2023/04/15 07:14:37;;;;;;;;;;;;;;;15.87;37.68;94574.63;4950321;28;19936;-61
2023/04/15 07:17:04;;;;;;;;;;;;;;;15.92;40.12;94572.66;4937707;28;19997;-66
2023/04/15 07:19:31;;;;;;;;;;;;;;;16.08;39.91;94567.84;4949017;29;19934;-68
2023/04/15 07:21:57;;;;;;;;;;;;;;;15.72;41.13;94564.38;4933376;29;19927;-65
2023/04/15 07:24:25;;;;;;;;;;;;;;;16.13;38.97;94567.72;4935438;29;19927;-59
2023/04/15 07:26:58;;;;;;;;;;;;;;;16.19;38.63;94566.53;4944278;28;20029;-63
2023/04/15 07:29:26;;;;;;;;;;;;;;;16.53;39.04;94561.56;4950144;28;19939;-64
2023/04/15 07:31:53;;;;;;;;;;;;;;;16.37;38.57;94578.81;4936953;29;19930;-66
2023/04/15 07:34:20;;;;;;;;;;;;;;;16.14;40.17;94569.31;4949366;29;19969;-65
2023/04/15 07:36:50;;;;;;;;;;;;;;;16.85;38.94;94576.41;4932163;29;19938;-67
2023/04/15 07:39:17;;;;;;;;;;;;;;;17.45;38.14;94568.78;4945746;29;20029;-63
2023/04/15 07:41:45;;;;;;;;;;;;;;;16.98;38.05;94557.03;4941044;29;20393;-60
2023/04/15 07:44:12;;;;;;;;;;;;;;;16.81;39.61;94563.00;4945809;29;19978;-61
2023/04/15 07:46:38;;;;;;;;;;;;;;;16.66;38.62;94555.44;4940860;29;20000;-59
2023/04/15 07:49:06;;;;;;;;;;;;;;;16.77;38.57;94567.34;4945226;29;19937;-61
2023/04/15 07:51:33;;;;;;;;;;;;;;;16.93;37.57;94568.53;4950891;28;19927;-65
2023/04/15 07:53:59;;;;;;;;;;;;;;;16.17;36.89;94579.28;4950517;29;19931;-63
2023/04/15 07:56:26;;;;;;;;;;;;;;;16.55;37.09;94585.09;4950396;28;19930;-59
2023/04/15 07:58:53;;;;;;;;;;;;;;;16.94;36.51;94583.34;4950744;29;20017;-61
2023/04/15 08:01:20;;;;;;;;;;;;;;;16.83;36.99;94587.31;4951336;28;19930;-60
2023/04/15 08:03:47;;;;;;;;;;;;;;;16.93;38.45;94586.28;4952567;29;20433;-62
2023/04/15 08:06:14;;;;;;;;;;;;;;;17.30;37.43;94582.47;4952744;28;19934;-63
2023/04/15 08:08:41;;;;;;;;;;;;;;;17.87;36.84;94576.16;4950883;29;20040;-62
2023/04/15 08:11:09;;;;;;;;;;;;;;;17.58;37.37;94571.38;4952219;28;20390;-64
2023/04/15 08:13:36;;;;;;;;;;;;;;;17.84;35.36;94571.47;4952461;29;20370;-61
2023/04/15 08:16:13;;;;;;;;;;;;;;;17.86;35.02;94571.94;4952579;29;19942;-64
2023/04/15 08:18:40;;;;;;;;;;;;;;;17.36;36.57;94587.31;4948005;28;19931;-66
2023/04/15 08:21:08;;;;;;;;;;;;;;;17.55;34.99;94576.53;4949218;28;19973;-61
2023/04/15 08:23:34;;;;;;;;;;;;;;;17.92;35.51;94576.00;4951242;29;19926;-63
2023/04/15 08:26:01;;;;;;;;;;;;;;;18.31;35.23;94578.56;4952841;28;19945;-65
2023/04/15 08:28:28;;;;;;;;;;;;;;;18.49;34.86;94574.06;4952813;29;19930;-65
2023/04/15 08:30:55;;;;;;;;;;;;;;;18.96;33.98;94568.59;4952780;28;19930;-64
2023/04/15 08:33:21;;;;;;;;;;;;;;;18.32;35.93;94566.09;4952183;29;19997;-61
2023/04/15 08:35:48;;;;;;;;;;;;;;;18.90;33.80;94566.41;4952162;28;20544;-58
2023/04/15 08:38:15;;;;;;;;;;;;;;;18.89;33.64;94556.88;4951841;29;20386;-64
2023/04/15 08:40:43;;;;;;;;;;;;;;;19.08;32.19;94555.47;4952306;28;20391;-66
2023/04/15 08:43:12;;;;;;;;;;;;;;;18.97;33.50;94554.22;4938794;28;20325;-63
2023/04/15 08:45:38;;;;;;;;;;;;;;;19.62;33.66;94553.09;4951873;28;19926;-62
2023/04/15 08:48:07;;;;;;;;;;;;;;;19.32;33.32;94548.84;4951790;29;19926;-62
2023/04/15 08:50:34;;;;;;;;;;;;;;;19.40;33.56;94556.00;4951586;28;19927;-57
2023/04/15 08:53:00;;;;;;;;;;;;;;;19.31;33.36;94547.25;4951337;29;19958;-59
2023/04/15 08:55:29;;;;;;;;;;;;;;;19.30;32.94;94537.72;4951748;29;19930;-62
2023/04/15 08:57:56;;;;;;;;;;;;;;;19.78;32.75;94543.50;4951315;29;20021;-59
2023/04/15 09:00:22;;;;;;;;;;;;;;;19.60;31.46;94545.44;4951665;28;19998;-55
2023/04/15 09:02:49;;;;;;;;;;;;;;;19.76;31.65;94535.06;4951185;29;19942;-56
2023/04/15 09:05:16;;;;;;;;;;;;;;;20.18;29.70;94528.75;4951464;29;19933;-58
2023/04/15 09:07:43;;;;;;;;;;;;;;;20.01;29.01;94528.81;4950798;28;19933;-59
2023/04/15 09:10:10;;;;;;;;;;;;;;;19.65;29.62;94531.22;4951457;29;19930;-62
2023/04/15 09:12:37;;;;;;;;;;;;;;;20.05;30.36;94530.50;4951559;29;20046;-58
2023/04/15 09:15:04;;;;;;;;;;;;;;;19.94;30.02;94529.31;4950909;28;19934;-61
2023/04/15 09:17:32;;;;;;;;;;;;;;;19.55;29.86;94518.28;4950957;28;19996;-59
2023/04/15 09:20:19;;;;;;;;;;;;;;;19.56;30.43;94517.19;4951594;29;19930;-58
2023/04/15 09:22:47;;;;;;;;;;;;;;;20.04;28.86;94512.19;4946619;29;20398;-61
2023/04/15 09:25:13;;;;;;;;;;;;;;;19.88;28.71;94506.69;4946783;29;19950;-60
2023/04/15 09:27:50;;;;;;;;;;;;;;;20.24;29.19;94506.13;4951016;29;19937;-62
2023/04/15 09:30:17;;;;;;;;;;;;;;;20.25;28.67;94507.72;4950965;28;19926;-60
2023/04/15 09:33:06;;;;;;;;;;;;;;;20.35;28.83;94517.16;4950839;28;19926;-63
2023/04/15 09:35:36;;;;;;;;;;;;;;;20.22;28.44;94516.31;4950756;28;19969;-58
2023/04/15 09:38:04;;;;;;;;;;;;;;;20.47;27.71;94515.38;4950136;28;19985;-59
2023/04/15 09:40:33;;;;;;;;;;;;;;;20.47;26.56;94511.91;4951095;28;19927;-57
2023/04/15 09:43:03;;;;;;;;;;;;;;;20.75;25.89;94504.91;4950564;28;19933;-60
2023/04/15 09:45:31;;;;;;;;;;;;;;;20.49;27.59;94502.50;4950954;28;19949;-61
2023/04/15 09:47:58;;;;;;;;;;;;;;;20.19;28.13;94509.00;4950858;28;20394;-62
2023/04/15 09:50:28;;;;;;;;;;;;;;;20.67;27.35;94509.25;4950953;29;19930;-61
2023/04/15 09:52:55;;;;;;;;;;;;;;;20.87;25.87;94512.97;4950397;28;19933;-62
2023/04/15 09:55:22;;;;;;;;;;;;;;;20.56;26.03;94507.31;4951108;28;20021;-65
2023/04/15 09:57:48;;;;;;;;;;;;;;;20.83;26.64;94517.38;4950490;29;20032;-64
2023/04/15 10:00:15;;;;;;;;;;;;;;;20.93;26.11;94524.94;4951086;29;20014;-64
2023/04/15 10:02:46;;;;;;;;;;;;;;;21.41;25.61;94511.75;4950816;29;19930;-61
2023/04/15 10:05:14;;;;;;;;;;;;;;;21.15;24.89;94520.06;4950855;28;19930;-64
2023/04/15 10:07:41;;;;;;;;;;;;;;;21.52;25.18;94506.75;4950851;29;19970;-64
2023/04/15 10:10:09;;;;;;;;;;;;;;;20.89;24.33;94508.84;4950563;28;20436;-62
2023/04/15 10:12:36;;;;;;;;;;;;;;;21.09;24.10;94502.72;4950595;29;19938;-67
2023/04/15 10:15:04;;;;;;;;;;;;;;;20.91;24.58;94495.97;4950702;29;19989;-62
2023/04/15 10:17:35;;;;;;;;;;;;;;;20.90;25.93;94491.00;4950213;28;19935;-65
2023/04/15 10:20:04;;;;;;;;;;;;;;;20.63;26.72;94495.03;4950115;28;20314;-65
2023/04/15 10:22:31;;;;;;;;;;;;;;;21.26;25.53;94487.66;4950928;29;20402;-63
2023/04/15 10:25:01;;;;;;;;;;;;;;;21.11;25.83;94486.41;4950566;29;20021;-64
2023/04/15 10:27:28;;;;;;;;;;;;;;;21.44;25.80;94473.00;4950668;28;19926;-64
2023/04/15 10:29:56;;;;;;;;;;;;;;;21.39;25.31;94465.22;4950300;28;19933;-60
2023/04/15 10:32:24;;;;;;;;;;;;;;;21.73;25.29;94464.78;4949838;28;19926;-63
2023/04/15 10:34:51;;;;;;;;;;;;;;;21.87;24.53;94459.91;4937623;29;19949;-63
2023/04/15 10:37:40;;;;;;;;;;;;;;;21.46;26.74;94468.88;4949133;29;19985;-61
2023/04/15 10:40:37;;;;;;;;;;;;;;;21.83;25.13;94461.66;4949461;28;20026;-66
2023/04/15 10:43:04;;;;;;;;;;;;;;;21.72;26.36;94457.88;4923781;29;20006;-61
2023/04/15 10:45:32;;;;;;;;;;;;;;;21.45;27.32;94459.34;4949740;28;19970;-67
2023/04/15 10:48:01;;;;;;;;;;;;;;;22.33;26.59;94462.00;4949579;29;20013;-64
2023/04/15 10:50:32;;;;;;;;;;;;;;;21.58;26.22;94458.25;4948886;28;20173;-65
2023/04/15 10:53:02;;;;;;;;;;;;;;;21.60;26.61;94465.91;4949483;29;19973;-63
2023/04/15 10:55:32;;;;;;;;;;;;;;;21.82;26.09;94457.47;4948707;29;19935;-65
2023/04/15 10:58:02;;;;;;;;;;;;;;;21.58;26.00;94460.13;4935636;29;19934;-65
2023/04/15 11:00:30;;;;;;;;;;;;;;;21.74;25.93;94463.66;4947546;29;19926;-63
2023/04/15 11:03:10;;;;;;;;;;;;;;;22.30;24.38;94465.34;4937473;29;19933;-62
2023/04/15 11:05:40;;;;;;;;;;;;;;;22.12;23.41;94461.38;4945561;28;19927;-67
2023/04/15 11:08:08;;;;;;;;;;;;;;;21.72;23.63;94455.22;4947334;29;20348;-63
2023/04/15 11:10:34;;;;;;;;;;;;;;;21.17;24.50;94464.53;4946307;28;19926;-64
2023/04/15 11:13:13;;;;;;;;;;;;;;;21.47;25.49;94456.34;4950142;28;19927;-63
2023/04/15 11:15:41;;;;;;;;;;;;;;;21.54;25.21;94451.22;4935310;29;19934;-65
2023/04/15 11:18:12;;;;;;;;;;;;;;;21.96;24.27;94452.53;4931241;29;19937;-63
2023/04/15 11:20:40;;;;;;;;;;;;;;;21.81;25.19;94450.56;4948860;28;20452;-65
2023/04/15 11:23:07;;;;;;;;;;;;;;;21.75;25.08;94441.97;4948654;29;19927;-62
2023/04/15 11:25:41;;;;;;;;;;;;;;;22.67;24.16;94434.75;4948770;29;19998;-63
2023/04/15 11:28:09;;;;;;;;;;;;;;;23.05;24.72;94434.97;4943881;29;20010;-63
2023/04/15 11:30:37;;;;;;;;;;;;;;;22.58;25.30;94442.13;4941058;28;19930;-64
2023/04/15 11:33:07;;;;;;;;;;;;;;;23.14;24.36;94438.25;4946275;29;19931;-64
2023/04/15 11:35:34;;;;;;;;;;;;;;;23.21;24.62;94444.88;4945359;29;19930;-67
2023/04/15 11:38:02;;;;;;;;;;;;;;;22.40;24.91;94445.41;4945656;29;19966;-64
2023/04/15 11:40:30;;;;;;;;;;;;;;;22.17;24.04;94450.47;4951325;28;20542;-63
2023/04/15 11:43:23;;;;;;;;;;;;;;;22.95;23.51;94451.50;4951970;29;20030;-64
2023/04/15 11:45:59;;;;;;;;;;;;;;;23.53;23.73;94441.09;4949400;29;19934;-62
2023/04/15 11:48:28;;;;;;;;;;;;;;;22.73;24.54;94446.75;4953496;28;20379;-61
2023/04/15 11:50:55;;;;;;;;;;;;;;;22.11;24.76;94433.16;4953181;29;20025;-63
2023/04/15 11:53:23;;;;;;;;;;;;;;;22.57;23.23;94434.47;4952749;29;19930;-62
2023/04/15 11:55:51;;;;;;;;;;;;;;;22.40;21.36;94429.38;4952779;28;19938;-62
2023/04/15 11:58:36;;;;;;;;;;;;;;;23.09;20.98;94430.47;4948235;29;19938;-63
2023/04/15 12:01:07;;;;;;;;;;;;;;;23.54;20.39;94418.59;4946523;28;19938;-65
2023/04/15 12:03:48;;;;;;;;;;;;;;;22.39;19.72;94425.94;4952261;29;20015;-66
2023/04/15 12:06:18;;;;;;;;;;;;;;;22.96;21.21;94430.91;4952760;28;19926;-66
2023/04/15 12:08:54;;;;;;;;;;;;;;;23.42;20.83;94426.69;4952478;29;19952;-67
2023/04/15 12:11:30;;;;;;;;;;;;;;;23.20;19.90;94424.59;4951911;29;19934;-60
2023/04/15 12:13:58;;;;;;;;;;;;;;;22.51;20.05;94423.22;4947463;29;19934;-62
2023/04/15 12:16:26;;;;;;;;;;;;;;;21.66;22.24;94427.25;4949849;28;19969;-65
2023/04/15 12:18:55;;;;;;;;;;;;;;;21.50;22.78;94437.00;4950816;29;19998;-67
2023/04/15 12:21:22;;;;;;;;;;;;;;;21.72;19.74;94420.53;4950889;28;19934;-65
2023/04/15 12:23:53;;;;;;;;;;;;;;;22.49;19.96;94428.13;4952407;29;20457;-69
2023/04/15 12:26:32;;;;;;;;;;;;;;;21.78;18.85;94419.22;4946134;28;20422;-63
2023/04/15 12:29:09;;;;;;;;;;;;;;;21.89;19.32;94420.31;4951984;28;19941;-64
2023/04/15 12:31:36;;;;;;;;;;;;;;;22.40;19.14;94424.84;4951910;28;19931;-63
2023/04/15 12:34:06;;;;;;;;;;;;;;;21.47;19.23;94433.13;4952146;29;20029;-59
2023/04/15 12:36:36;;;;;;;;;;;;;;;21.87;20.09;94433.22;4951656;29;20033;-66
2023/04/15 12:39:03;;;;;;;;;;;;;;;21.79;19.73;94426.13;4952744;28;20394;-63
2023/04/15 12:41:30;;;;;;;;;;;;;;;22.18;19.69;94430.69;4951728;28;19934;-64
2023/04/15 12:43:58;;;;;;;;;;;;;;;22.20;19.26;94412.44;4944643;29;19962;-68
2023/04/15 12:46:24;;;;;;;;;;;;;;;22.39;19.68;94433.94;4951547;29;20392;-63
2023/04/15 12:48:52;;;;;;;;;;;;;;;22.58;19.43;94423.44;4951529;28;19981;-61
2023/04/15 12:51:20;;;;;;;;;;;;;;;21.89;19.33;94423.00;4944327;28;20339;-60
2023/04/15 12:53:48;;;;;;;;;;;;;;;22.06;19.47;94430.75;4950413;28;20421;-64